Flight Track Log - Related Links

Times and Time Zones

All times are in EDT time to prevent confusion due to time zone crossing. See the JZA8439 flight status page for this flight to view local times or setup timezone preferences in your user account.

Time Position Orientation Groundspeed Altitude Reporting Facility
EDT Latitude Longitude Course Direction KTS MPH feet Rate Location/Type
Fri 03:06:35 PM 50.4000 -104.7000 286° West 60 69 1,900  Level Winnipeg Center
Fri 03:07:35 PM 50.4167 -104.7500 298° West 160 184 4,000 2,050 Climbing Winnipeg Center
Fri 03:08:35 PM 50.4333 -104.8333 287° West 190 219 6,000 2,033 Climbing Winnipeg Center
Fri 03:09:36 PM 50.4500 -104.9167 287° West 190 219 8,100 1,750 Climbing Winnipeg Center
Fri 03:10:35 PM 50.4667 -105.0000 287° West 210 242 9,500 1,462 Climbing Winnipeg Center
Fri 03:11:00 PM 50.5602 -105.2894 286° West  Level FlightAware Approximate
Fri 03:11:35 PM 50.5000 -105.1000 298° West 230 265 11,000  Level Winnipeg Center
Fri 03:12:35 PM 50.5167 -105.1833 287° West 240 276 12,400 1,438 Climbing Winnipeg Center
Fri 03:13:36 PM 50.5500 -105.3000 294° West 240 276 13,900 1,388 Climbing Winnipeg Center
Fri 03:14:36 PM 50.5667 -105.3833 288° West 240 276 15,200 1,300 Climbing Winnipeg Center
Fri 03:15:36 PM 50.5833 -105.4833 285° West 240 276 16,500 1,200 Climbing Winnipeg Center
Fri 03:16:36 PM 50.6167 -105.6000 294° West 250 288 17,600 1,100 Climbing Winnipeg Center
Fri 03:17:36 PM 50.6167 -105.7167 270° West 250 288 18,700 1,000 Climbing Winnipeg Center
Fri 03:18:36 PM 50.6500 -105.8167 298° West 250 288 19,600 1,000 Climbing Winnipeg Center
Fri 03:19:36 PM 50.6500 -105.9333 270° West 250 288 20,700 950 Climbing Winnipeg Center
Fri 03:20:36 PM 50.6833 -106.0167 302° West 250 288 21,500 700 Climbing Winnipeg Center
Fri 03:21:36 PM 50.6833 -106.1167 270° West 250 288 22,100 650 Climbing Winnipeg Center
Fri 03:22:36 PM 50.7167 -106.2333 294° West 260 299 22,800 700 Climbing Winnipeg Center
Fri 03:23:36 PM 50.7167 -106.3333 270° West 260 299 23,500 626 Climbing Winnipeg Center
Fri 03:24:31 PM 50.7333 -106.4333 285° West 260 299 24,000 261 Climbing Edmonton Center
Fri 03:25:31 PM 50.7500 -106.5333 285° West 280 322 24,000  Level Edmonton Center
Fri 03:26:31 PM 50.7667 -106.6667 281° West 290 334 24,000  Level Edmonton Center
Fri 03:27:31 PM 50.7833 -106.8000 281° West 300 345 24,000  Level Edmonton Center
Fri 03:28:31 PM 50.8167 -106.9333 292° West 300 345 24,000  Level Edmonton Center
Fri 03:29:31 PM 50.8333 -107.0667 281° West 310 357 24,000  Level Edmonton Center
Fri 03:30:31 PM 50.8500 -107.2167 280° West 310 357 24,000  Level Edmonton Center
Fri 03:31:31 PM 50.8667 -107.3500 281° West 310 357 24,000  Level Edmonton Center
Fri 03:32:31 PM 50.8833 -107.4833 281° West 310 357 24,000  Level Edmonton Center
Fri 03:33:31 PM 50.9000 -107.6167 281° West 310 357 24,000  Level Edmonton Center
Fri 03:34:31 PM 50.9333 -107.7500 292° West 310 357 24,000  Level Edmonton Center
Fri 03:35:36 PM 50.9667 -107.9167 288° West 320 368 24,000  Level Winnipeg Center
Fri 03:36:36 PM 50.9667 -108.0500 270° West 320 368 24,000  Level Winnipeg Center
Fri 03:37:31 PM 50.9833 -108.1500 285° West 310 357 24,000  Level Edmonton Center
Fri 03:38:31 PM 51.0000 -108.2833 281° West 310 357 24,000  Level Edmonton Center
Fri 03:39:31 PM 51.0333 -108.4333 290° West 310 357 24,000  Level Edmonton Center
Fri 03:40:31 PM 51.0500 -108.5667 281° West 310 357 24,000  Level Edmonton Center
Fri 03:41:31 PM 51.0500 -108.7000 270° West 310 357 24,000  Level Edmonton Center
Fri 03:42:31 PM 51.0833 -108.8333 292° West 310 357 24,000  Level Edmonton Center
Fri 03:43:31 PM 51.1000 -108.9667 281° West 310 357 24,000  Level Edmonton Center
Fri 03:44:31 PM 51.1167 -109.1000 281° West 310 357 24,000  Level Edmonton Center
Fri 03:45:31 PM 51.1333 -109.2333 281° West 310 357 24,000  Level Edmonton Center
Fri 03:46:31 PM 51.1500 -109.3833 280° West 310 357 24,000  Level Edmonton Center
Fri 03:47:31 PM 51.1667 -109.5167 281° West 310 357 24,000  Level Edmonton Center
Fri 03:48:31 PM 51.1833 -109.6500 281° West 310 357 24,000  Level Edmonton Center
Fri 03:49:31 PM 51.2000 -109.7833 281° West 310 357 24,000  Level Edmonton Center
Fri 03:50:31 PM 51.2167 -109.9167 281° West 310 357 24,000  Level Edmonton Center
Fri 03:51:31 PM 51.2333 -110.0667 280° West 310 357 24,000  Level Edmonton Center
Fri 03:52:31 PM 51.2333 -110.2000 270° West 310 357 24,000  Level Edmonton Center
Fri 03:53:31 PM 51.2500 -110.3333 281° West 310 357 24,000  Level Edmonton Center
Fri 03:54:31 PM 51.2333 -110.4667 259° West 310 357 24,000  Level Edmonton Center
Fri 03:55:31 PM 51.2500 -110.6000 281° West 310 357 24,000  Level Edmonton Center
Fri 03:56:31 PM 51.2500 -110.7333 270° West 310 357 24,000  Level Edmonton Center
Fri 03:57:31 PM 51.2500 -110.9000 270° West 310 357 24,000  Level Edmonton Center
Fri 03:58:31 PM 51.2500 -111.0333 270° West 310 357 24,000  Level Edmonton Center
Fri 03:59:31 PM 51.2667 -111.1667 281° West 310 357 24,000  Level Edmonton Center
Fri 04:00:31 PM 51.2667 -111.3000 270° West 310 357 24,000  Level Edmonton Center
Fri 04:01:31 PM 51.2667 -111.4667 270° West 310 357 24,000  Level Edmonton Center
Fri 04:02:31 PM 51.2833 -111.6000 281° West 320 368 24,000  Level Edmonton Center
Fri 04:03:31 PM 51.2667 -111.7333 259° West 320 368 24,000  Level Edmonton Center
Fri 04:04:31 PM 51.2833 -111.8833 280° West 320 368 24,000 -100 Level Edmonton Center
Fri 04:05:31 PM 51.2833 -112.0167 270° West 320 368 23,800 -900 Descending Edmonton Center
Fri 04:06:31 PM 51.2667 -112.1833 261° West 320 368 22,200 -1,550 Descending Edmonton Center
Fri 04:07:31 PM 51.2833 -112.3167 281° West 320 368 20,700 -1,550 Descending Edmonton Center
Fri 04:08:31 PM 51.2833 -112.4500 270° West 320 368 19,100 -1,550 Descending Edmonton Center
Fri 04:09:31 PM 51.2833 -112.5833 270° West 320 368 17,600 -1,550 Descending Edmonton Center
Fri 04:10:31 PM 51.2833 -112.7500 270° West 320 368 16,000 -1,500 Descending Edmonton Center
Fri 04:11:31 PM 51.2833 -112.8833 270° West 300 345 14,600 -1,450 Descending Edmonton Center
Fri 04:12:31 PM 51.2500 -113.0167 248° West 290 334 13,100 -1,400 Descending Edmonton Center
Fri 04:13:31 PM 51.2333 -113.1167 255° West 290 334 11,800 -1,150 Descending Edmonton Center
Fri 04:14:31 PM 51.2167 -113.2500 259° West 280 322 10,800 -1,000 Descending Edmonton Center
Fri 04:15:31 PM 51.2000 -113.3833 259° West 280 322 9,800 -950 Descending Edmonton Center
Fri 04:16:31 PM 51.2000 -113.4833 270° West 270 311 8,900 -900 Descending Edmonton Center
Fri 04:17:31 PM 51.2000 -113.6333 270° West 270 311 8,000 -850 Descending Edmonton Center
Fri 04:18:31 PM 51.2000 -113.7333 270° West 250 288 7,200 -800 Descending Edmonton Center
Fri 04:19:31 PM 51.1833 -113.8333 255° West 220 253 6,400 -700 Descending Edmonton Center
Fri 04:20:31 PM 51.1833 -113.9167 270° West 210 242 5,800 -650 Descending Edmonton Center
Fri 04:21:31 PM 51.1667 -114.0000 252° West 180 207 5,100 -700 Descending Edmonton Center
Fri 04:22:31 PM 51.1333 -114.0500 223° Southwest 160 184 4,400 -500 Descending Edmonton Center
Fri 04:24:31 PM 51.0667 -114.0500 180° South 120 138 3,600 -400 Descending Edmonton Center

Login

Don't have an account? Register now (free) for customized features, flight alerts, and more!